createdAt,value
2023-03-19T00:02:24.364Z,100945.81
2023-03-19T00:05:25.232Z,100942.58
2023-03-19T00:08:25.255Z,100939.96
2023-03-19T00:11:26.245Z,100935.02
2023-03-19T00:14:26.277Z,100930.16
2023-03-19T00:17:27.287Z,100929.51
2023-03-19T00:20:28.888Z,100916.92
2023-03-19T00:23:30.203Z,100918.27
2023-03-19T00:26:32.273Z,100917.48
2023-03-19T00:29:33.420Z,100913.19
2023-03-19T00:32:34.357Z,100909.84
2023-03-19T00:35:36.664Z,100909.48
2023-03-19T00:38:38.520Z,100908.27
2023-03-19T00:41:43.285Z,100904.53
2023-03-19T00:44:44.328Z,100902.55
2023-03-19T00:47:48.332Z,100905.26
2023-03-19T00:50:49.407Z,100901.45
2023-03-19T00:53:51.313Z,100901.08
2023-03-19T00:56:51.311Z,100899.26
2023-03-19T00:59:52.402Z,100900.00
2023-03-19T01:02:54.355Z,100901.09
2023-03-19T01:05:54.340Z,100901.38
2023-03-19T01:08:55.554Z,100902.25
2023-03-19T01:11:55.552Z,100903.65
2023-03-19T01:14:58.319Z,100902.58
2023-03-19T01:17:58.369Z,100899.07
2023-03-19T01:20:59.505Z,100898.14
2023-03-19T01:24:03.347Z,100889.58
2023-03-19T01:27:07.984Z,100891.02
2023-03-19T01:30:09.362Z,100896.08
2023-03-19T01:33:33.384Z,100892.98
2023-03-19T01:36:41.470Z,100889.92
2023-03-19T01:39:43.394Z,100893.11
2023-03-19T01:42:43.379Z,100893.39
2023-03-19T01:46:11.081Z,100892.29
2023-03-19T01:49:21.403Z,100893.12
2023-03-19T01:52:37.435Z,100898.11
2023-03-19T01:55:58.394Z,100898.27
2023-03-19T01:59:14.428Z,100896.64
2023-03-19T02:02:46.567Z,100895.64
2023-03-19T02:06:17.432Z,100898.83
2023-03-19T02:09:17.440Z,100896.48
2023-03-19T02:12:17.457Z,100902.58
2023-03-19T02:15:23.478Z,100903.50
2023-03-19T02:18:24.505Z,100909.08
2023-03-19T02:21:29.447Z,100913.55
2023-03-19T02:24:36.488Z,100916.55
2023-03-19T02:27:39.451Z,100918.38
2023-03-19T02:30:42.055Z,100918.60
2023-03-19T02:33:42.680Z,100923.83
2023-03-19T02:36:43.484Z,100923.11
2023-03-19T02:39:45.491Z,100924.84
2023-03-19T02:42:45.475Z,100926.84
2023-03-19T02:45:46.531Z,100926.84
2023-03-19T02:48:48.475Z,100925.52
2023-03-19T02:51:52.505Z,100928.54
2023-03-19T02:54:52.540Z,100930.59
2023-03-19T02:57:56.525Z,100929.66
2023-03-19T03:00:57.544Z,100934.99
2023-03-19T03:03:57.612Z,100937.31
2023-03-19T03:06:57.567Z,100936.56
2023-03-19T03:09:58.737Z,100933.43
2023-03-19T03:12:58.581Z,100935.31
2023-03-19T03:16:00.608Z,100931.74
2023-03-19T03:19:00.551Z,100936.73
2023-03-19T03:22:00.577Z,100935.67
2023-03-19T03:25:00.588Z,100938.70
2023-03-19T03:28:09.618Z,100940.46
2023-03-19T03:31:12.700Z,100937.20
2023-03-19T03:34:14.933Z,100934.86
2023-03-19T03:37:15.825Z,100936.85
2023-03-19T03:40:21.639Z,100936.50
2023-03-19T03:43:25.136Z,100936.08
2023-03-19T03:46:25.631Z,100933.66
2023-03-19T03:49:26.653Z,100936.13
2023-03-19T03:52:26.627Z,100935.29
2023-03-19T03:55:30.421Z,100932.11
2023-03-19T03:58:31.660Z,100930.86
2023-03-19T04:01:31.585Z,100929.61
2023-03-19T04:04:31.672Z,100928.39
2023-03-19T04:07:31.745Z,100929.05
2023-03-19T04:10:35.050Z,100924.65
2023-03-19T04:13:37.875Z,100925.38
2023-03-19T04:16:38.793Z,100926.08
2023-03-19T04:19:38.931Z,100926.50
2023-03-19T04:22:39.668Z,100921.16
2023-03-19T04:25:40.755Z,100920.05
2023-03-19T04:28:44.671Z,100918.09
2023-03-19T04:31:44.903Z,100917.91
2023-03-19T04:34:44.766Z,100908.13
2023-03-19T04:37:44.721Z,100907.46
2023-03-19T04:40:44.672Z,100911.87
2023-03-19T04:43:46.413Z,100910.55
2023-03-19T04:46:46.660Z,100914.00
2023-03-19T04:49:47.959Z,100917.71
2023-03-19T04:52:48.778Z,100920.04
2023-03-19T04:55:51.761Z,100921.23
2023-03-19T04:58:52.701Z,100923.09
2023-03-19T05:01:53.710Z,100920.42
2023-03-19T05:04:53.722Z,100919.20
2023-03-19T05:07:55.746Z,100918.42
2023-03-19T05:10:55.756Z,100923.02
2023-03-19T05:14:03.747Z,100922.77
2023-03-19T05:17:33.851Z,100923.65
2023-03-19T05:20:44.813Z,100923.70
2023-03-19T05:23:46.756Z,100924.54
2023-03-19T05:26:47.731Z,100920.10
2023-03-19T05:30:16.830Z,100921.00
2023-03-19T05:33:32.787Z,100916.33
2023-03-19T05:36:32.791Z,100918.52
2023-03-19T05:39:41.835Z,100916.48
2023-03-19T05:42:42.839Z,100914.45
2023-03-19T05:45:46.813Z,100915.42
2023-03-19T05:48:52.467Z,100907.56
2023-03-19T05:51:55.885Z,100909.72
2023-03-19T05:54:57.795Z,100911.58
2023-03-19T05:58:14.830Z,100912.59
2023-03-19T06:01:14.867Z,100912.07
2023-03-19T06:04:15.855Z,100910.28
2023-03-19T06:07:16.856Z,100912.28
2023-03-19T06:10:16.803Z,100913.64
2023-03-19T06:13:20.821Z,100915.09
2023-03-19T06:16:31.892Z,100918.10
2023-03-19T06:19:38.566Z,100919.30
2023-03-19T06:22:39.907Z,100917.64
2023-03-19T06:25:39.867Z,100918.77
2023-03-19T06:28:41.839Z,100919.39
2023-03-19T06:31:44.962Z,100920.98
2023-03-19T06:34:49.081Z,100924.15
2023-03-19T06:37:52.302Z,100925.92
2023-03-19T06:40:52.922Z,100927.62
2023-03-19T06:43:52.878Z,100928.53
2023-03-19T06:46:56.908Z,100923.09
2023-03-19T06:49:59.966Z,100924.66
2023-03-19T06:53:01.956Z,100924.18
2023-03-19T06:56:04.912Z,100918.56
2023-03-19T06:59:06.943Z,100917.38
2023-03-19T07:02:10.014Z,100917.90
2023-03-19T07:05:09.957Z,100917.19
2023-03-19T07:08:18.096Z,100913.55
2023-03-19T07:11:17.964Z,100915.85
2023-03-19T07:14:25.202Z,100913.50
2023-03-19T07:17:27.491Z,100913.20
2023-03-19T07:20:36.497Z,100913.11
2023-03-19T07:23:38.937Z,100917.29
2023-03-19T07:26:40.018Z,100915.13
2023-03-19T07:29:40.976Z,100918.18
2023-03-19T07:32:45.036Z,100921.25
2023-03-19T07:35:46.292Z,100918.49
2023-03-19T07:38:49.780Z,100923.30
2023-03-19T07:41:54.975Z,100927.35
2023-03-19T07:44:57.033Z,100927.59
2023-03-19T07:47:57.992Z,100929.20
2023-03-19T07:50:58.111Z,100927.14
2023-03-19T07:54:00.028Z,100929.23
2023-03-19T07:57:02.960Z,100928.45
2023-03-19T08:00:04.025Z,100927.05
2023-03-19T08:03:13.216Z,100925.00
2023-03-19T08:06:13.020Z,100924.58
2023-03-19T08:09:27.582Z,100921.55
2023-03-19T08:12:40.978Z,100919.38
2023-03-19T08:15:48.583Z,100913.80
2023-03-19T08:18:54.407Z,100914.17
2023-03-19T08:21:57.506Z,100906.67
2023-03-19T08:25:04.217Z,100907.58
2023-03-19T08:28:15.893Z,100907.08
2023-03-19T08:31:26.130Z,100907.75
2023-03-19T08:34:40.614Z,100905.58
2023-03-19T08:37:46.379Z,100899.80
2023-03-19T08:40:47.444Z,100896.34
2023-03-19T08:43:51.179Z,100897.69
2023-03-19T08:46:55.267Z,100895.72
2023-03-19T08:49:59.589Z,100896.19
2023-03-19T08:53:03.575Z,100884.67
2023-03-19T08:56:05.131Z,100876.65
2023-03-19T08:59:09.704Z,100874.26
2023-03-19T09:02:11.178Z,100870.70
2023-03-19T09:05:13.352Z,100864.64
2023-03-19T09:08:33.158Z,100860.42
2023-03-19T09:11:37.208Z,100861.01
2023-03-19T09:14:38.211Z,100855.95
2023-03-19T09:17:43.452Z,100859.09
2023-03-19T09:20:48.524Z,100850.58
2023-03-19T09:24:06.161Z,100841.27
2023-03-19T09:27:09.125Z,100845.63
2023-03-19T09:30:10.326Z,100845.26
2023-03-19T09:33:19.620Z,100838.20
2023-03-19T09:36:28.791Z,100844.15
2023-03-19T09:39:57.122Z,100839.79
2023-03-19T09:43:24.420Z,100836.35
2023-03-19T09:46:34.060Z,100832.48
2023-03-19T09:49:48.720Z,100831.17
2023-03-19T09:53:01.466Z,100822.38
2023-03-19T09:56:13.278Z,100819.02
2023-03-19T09:59:29.357Z,100807.71
2023-03-19T10:02:50.384Z,100807.66
2023-03-19T10:05:56.403Z,100806.56
2023-03-19T10:09:16.251Z,100804.37
2023-03-19T10:12:34.445Z,100797.16
2023-03-19T10:15:45.249Z,100791.01
2023-03-19T10:18:49.392Z,100786.02
2023-03-19T10:22:15.268Z,100785.42
2023-03-19T10:25:20.145Z,100778.21
2023-03-19T10:28:51.905Z,100767.20
2023-03-19T10:32:13.341Z,100761.01
2023-03-19T10:35:14.299Z,100759.02
2023-03-19T10:38:33.317Z,100759.56
2023-03-19T10:41:42.353Z,100759.33
2023-03-19T10:44:48.339Z,100750.45
2023-03-19T10:47:51.375Z,100750.95
2023-03-19T10:50:51.556Z,100740.28
2023-03-19T10:53:53.368Z,100741.48
2023-03-19T10:56:57.766Z,100736.57
2023-03-19T11:00:02.034Z,100725.48
2023-03-19T11:03:05.424Z,100722.79
2023-03-19T11:06:14.348Z,100713.14
2023-03-19T11:09:19.380Z,100706.83
2023-03-19T11:12:21.758Z,100704.24
2023-03-19T11:15:42.537Z,100698.20
2023-03-19T11:18:44.506Z,100703.39
2023-03-19T11:21:57.369Z,100701.23
2023-03-19T11:25:09.439Z,100699.03
2023-03-19T11:28:28.404Z,100700.73
2023-03-19T11:31:34.814Z,100689.89
2023-03-19T11:34:55.434Z,100684.92
2023-03-19T11:38:00.646Z,100681.62
2023-03-19T11:41:04.558Z,100679.24
2023-03-19T11:44:12.431Z,100677.17
2023-03-19T11:47:27.428Z,100681.80
2023-03-19T11:50:40.575Z,100676.29
2023-03-19T11:53:49.471Z,100676.62
2023-03-19T11:57:02.137Z,100669.96
2023-03-19T12:00:20.640Z,100669.00
2023-03-19T12:03:50.486Z,100661.18
2023-03-19T12:07:03.876Z,100654.58
2023-03-19T12:10:09.810Z,100653.73
2023-03-19T12:13:15.761Z,100649.56
2023-03-19T12:16:52.497Z,100641.45
2023-03-19T12:20:34.121Z,100633.64
2023-03-19T12:24:07.823Z,100624.92
2023-03-19T12:27:34.677Z,100620.91
2023-03-19T12:31:03.054Z,100627.26
2023-03-19T12:34:23.169Z,100623.16
2023-03-19T12:37:29.943Z,100620.31
2023-03-19T12:40:57.669Z,100614.17
2023-03-19T12:44:07.868Z,100617.39
2023-03-19T12:50:45.835Z,100609.19
2023-03-19T12:54:07.914Z,100604.17
2023-03-19T13:01:19.757Z,100597.57
2023-03-19T13:04:39.812Z,100593.02
2023-03-19T13:07:56.080Z,100590.92
2023-03-19T13:11:03.193Z,100591.16
2023-03-19T13:14:12.740Z,100588.80
2023-03-19T13:17:21.226Z,100581.11
2023-03-19T13:20:36.037Z,100574.77
2023-03-19T13:23:42.504Z,100571.29
2023-03-19T13:26:53.038Z,100568.88
2023-03-19T13:30:08.475Z,100570.70
2023-03-19T13:33:16.932Z,100568.41
2023-03-19T13:36:23.472Z,100569.19
2023-03-19T13:39:26.860Z,100565.63
2023-03-19T13:42:38.505Z,100561.75
2023-03-19T13:45:48.663Z,100560.88
2023-03-19T13:48:50.040Z,100558.92
2023-03-19T13:52:04.062Z,100558.16
2023-03-19T13:55:05.934Z,100553.20
2023-03-19T13:58:46.668Z,100549.48
2023-03-19T14:01:53.729Z,100551.06
2023-03-19T14:05:03.749Z,100544.15
2023-03-19T14:08:04.695Z,100547.46
2023-03-19T14:11:08.176Z,100544.56
2023-03-19T14:14:09.719Z,100542.02
2023-03-19T14:17:47.917Z,100541.28
2023-03-19T14:21:22.225Z,100538.06
2023-03-19T14:25:06.068Z,100536.73
2023-03-19T14:28:20.336Z,100533.11
2023-03-19T14:31:30.783Z,100533.97
2023-03-19T14:34:47.810Z,100533.09
2023-03-19T14:37:50.182Z,100532.69
2023-03-19T14:40:58.909Z,100532.67
2023-03-19T14:44:07.966Z,100531.18
2023-03-19T14:47:40.385Z,100538.92
2023-03-19T14:51:10.817Z,100533.64
2023-03-19T14:54:40.343Z,100535.84
2023-03-19T14:57:49.804Z,100535.55
2023-03-19T15:01:00.440Z,100537.76
2023-03-19T15:04:23.937Z,100536.87
2023-03-19T15:07:35.267Z,100536.27
2023-03-19T15:10:45.355Z,100523.98
2023-03-19T15:13:55.112Z,100525.91
2023-03-19T15:17:06.321Z,100532.28
2023-03-19T15:20:12.537Z,100534.48
2023-03-19T15:23:29.900Z,100535.61
2023-03-19T15:26:42.137Z,100539.30
2023-03-19T15:29:51.426Z,100539.31
2023-03-19T15:33:12.054Z,100539.67
2023-03-19T15:40:12.933Z,100537.29
2023-03-19T15:43:26.959Z,100539.52
2023-03-19T15:46:38.089Z,100538.83
2023-03-19T15:53:26.114Z,100538.27
2023-03-19T15:56:31.100Z,100541.61
2023-03-19T15:59:51.022Z,100542.09
2023-03-19T16:03:02.564Z,100535.86
2023-03-19T16:14:37.770Z,100550.64
2023-03-19T16:18:01.701Z,100547.77
2023-03-19T16:21:27.017Z,100547.10
2023-03-19T16:24:46.113Z,100549.73
2023-03-19T16:27:52.822Z,100549.34
2023-03-19T16:31:09.756Z,100551.91
2023-03-19T16:34:39.928Z,100550.52
2023-03-19T16:37:46.306Z,100550.70
2023-03-19T16:40:53.940Z,100548.31
2023-03-19T16:44:19.846Z,100552.05
2023-03-19T16:47:34.122Z,100547.39
2023-03-19T16:50:36.972Z,100548.77
2023-03-19T16:53:42.060Z,100556.57
2023-03-19T16:56:44.902Z,100564.58
2023-03-19T16:59:46.225Z,100562.94
2023-03-19T17:02:47.968Z,100564.98
2023-03-19T17:05:49.880Z,100569.05
2023-03-19T17:08:55.958Z,100565.70
2023-03-19T17:11:59.189Z,100566.10
2023-03-19T17:15:01.991Z,100564.95
2023-03-19T17:18:04.014Z,100564.73
2023-03-19T17:21:09.060Z,100567.61
2023-03-19T17:24:15.070Z,100561.77
2023-03-19T17:27:17.135Z,100559.35
2023-03-19T17:30:19.328Z,100550.98
2023-03-19T17:33:20.084Z,100552.52
2023-03-19T17:36:22.084Z,100554.48
2023-03-19T17:39:28.131Z,100553.75
2023-03-19T17:42:33.017Z,100551.16
2023-03-19T17:45:35.304Z,100550.45
2023-03-19T17:48:39.344Z,100551.98
2023-03-19T17:51:43.687Z,100551.88
2023-03-19T17:54:47.080Z,100557.73
2023-03-19T17:57:50.306Z,100556.05
2023-03-19T18:00:53.192Z,100553.75
2023-03-19T18:03:54.569Z,100555.46
2023-03-19T18:06:59.367Z,100557.48
2023-03-19T18:10:02.089Z,100554.58
2023-03-19T18:13:04.249Z,100553.23
2023-03-19T18:16:17.138Z,100550.77
2023-03-19T18:19:17.153Z,100553.86
2023-03-19T18:22:27.131Z,100553.86
2023-03-19T18:25:38.137Z,100549.88
2023-03-19T18:28:39.121Z,100550.77
2023-03-19T18:31:41.716Z,100547.54
2023-03-19T18:34:42.332Z,100545.81
2023-03-19T18:37:42.125Z,100550.61
2023-03-19T18:40:42.098Z,100548.36
2023-03-19T18:43:47.049Z,100554.25
2023-03-19T18:46:48.145Z,100551.45
2023-03-19T18:49:52.172Z,100550.41
2023-03-19T18:52:58.278Z,100549.12
2023-03-19T18:56:02.198Z,100546.46
2023-03-19T18:59:04.196Z,100547.55
2023-03-19T19:02:06.336Z,100543.64
2023-03-19T19:05:07.485Z,100544.35
2023-03-19T19:08:08.175Z,100540.44
2023-03-19T19:11:10.191Z,100546.67
2023-03-19T19:14:14.812Z,100547.42
2023-03-19T19:17:18.527Z,100553.23
2023-03-19T19:20:31.376Z,100557.93
2023-03-19T19:23:35.533Z,100556.06
2023-03-19T19:26:37.215Z,100559.09
2023-03-19T19:29:41.228Z,100564.72
2023-03-19T19:32:42.469Z,100564.16
2023-03-19T19:35:42.429Z,100566.53
2023-03-19T19:38:58.250Z,100565.73
2023-03-19T19:41:58.238Z,100567.05
2023-03-19T19:45:10.285Z,100563.37
2023-03-19T19:48:11.307Z,100560.73
2023-03-19T19:51:13.301Z,100563.04
2023-03-19T19:54:14.347Z,100563.39
2023-03-19T19:57:18.327Z,100563.55
2023-03-19T20:00:19.552Z,100560.86
2023-03-19T20:03:22.313Z,100562.23
2023-03-19T20:06:25.465Z,100557.70
2023-03-19T20:09:25.309Z,100561.55
2023-03-19T20:12:41.838Z,100562.75
2023-03-19T20:15:45.323Z,100561.88
2023-03-19T20:18:50.305Z,100559.45
2023-03-19T20:21:52.295Z,100561.08
2023-03-19T20:24:53.328Z,100559.14
2023-03-19T20:27:53.391Z,100560.56
2023-03-19T20:30:54.355Z,100561.48
2023-03-19T20:34:38.214Z,100562.29
2023-03-19T20:37:47.843Z,100556.52
2023-03-19T20:40:58.363Z,100557.44
2023-03-19T20:43:59.313Z,100557.02
2023-03-19T20:47:05.404Z,100553.82
2023-03-19T20:50:10.954Z,100553.44
2023-03-19T20:53:34.129Z,100552.06
2023-03-19T20:56:36.353Z,100550.54
2023-03-19T20:59:38.411Z,100556.05
2023-03-19T21:02:38.498Z,100557.14
2023-03-19T21:05:50.388Z,100559.77
2023-03-19T21:08:52.362Z,100554.87
2023-03-19T21:11:59.852Z,100556.84
2023-03-19T21:15:00.632Z,100555.90
2023-03-19T21:18:01.899Z,100562.36
2023-03-19T21:21:04.408Z,100563.09
2023-03-19T21:24:15.792Z,100567.46
2023-03-19T21:27:17.512Z,100568.77
2023-03-19T21:30:17.446Z,100568.95
2023-03-19T21:33:20.533Z,100571.34
2023-03-19T21:36:24.416Z,100571.20
2023-03-19T21:39:30.419Z,100573.10
2023-03-19T21:42:30.509Z,100576.36
2023-03-19T21:45:38.188Z,100571.00
2023-03-19T21:48:46.705Z,100570.41
2023-03-19T21:51:50.534Z,100566.02
2023-03-19T21:54:51.434Z,100570.48
2023-03-19T21:57:56.541Z,100574.02
2023-03-19T22:00:58.640Z,100576.73
2023-03-19T22:03:59.678Z,100573.70
2023-03-19T22:06:59.500Z,100573.23
2023-03-19T22:10:03.679Z,100569.70
2023-03-19T22:13:06.524Z,100568.27
2023-03-19T22:16:10.568Z,100564.58
2023-03-19T22:19:11.934Z,100565.69
2023-03-19T22:22:12.481Z,100565.46
2023-03-19T22:25:15.495Z,100560.23
2023-03-19T22:28:33.687Z,100551.60
2023-03-19T22:31:33.618Z,100553.97
2023-03-19T22:34:35.529Z,100552.23
2023-03-19T22:37:37.557Z,100547.72
2023-03-19T22:40:38.527Z,100546.09
2023-03-19T22:43:40.573Z,100552.10
2023-03-19T22:46:53.069Z,100547.70
2023-03-19T22:49:53.541Z,100552.91
2023-03-19T22:52:54.539Z,100557.92
2023-03-19T22:55:58.552Z,100557.59
2023-03-19T22:58:58.573Z,100558.95
2023-03-19T23:01:59.640Z,100554.56
2023-03-19T23:05:00.553Z,100554.48
2023-03-19T23:08:03.112Z,100554.05
2023-03-19T23:11:07.561Z,100550.91
2023-03-19T23:14:15.318Z,100547.86
2023-03-19T23:17:26.898Z,100545.54
2023-03-19T23:20:30.577Z,100543.04
2023-03-19T23:23:33.632Z,100538.57
2023-03-19T23:26:41.800Z,100535.45
2023-03-19T23:29:42.608Z,100536.56
2023-03-19T23:32:47.688Z,100531.25
2023-03-19T23:35:47.707Z,100529.42
2023-03-19T23:38:47.635Z,100528.85
2023-03-19T23:41:47.644Z,100527.52
2023-03-19T23:44:48.647Z,100528.31
2023-03-19T23:47:51.781Z,100528.16
2023-03-19T23:50:52.630Z,100523.23
2023-03-19T23:53:53.681Z,100518.04
2023-03-19T23:56:58.677Z,100520.13
2023-03-19T23:59:58.675Z,100514.80
